Historique des stations

Station météo de Lys-Saint-Georges

Altitude de la station : 220 m







Données météorologiques pour le 05/12/2021
Date
Heure
Températures Humidité Point de rosée Vitesse
du vent
Direction Rafales Windchill Pression Pluviométrie
Cumul
Date
Heure
Températures Humidité Point de rosée Vitesse
du vent
Direction Rafales Windchill Pression Pluviométrie
Cumul
05/12/2021 12:004.3 °C91 %2.9 °C15 km/hO26 km/h0.71008 hPa0.0 mm
05/12/2021 11:404.1 °C91 %2.7 °C14 km/hO26 km/h0.41008 hPa0.0 mm
05/12/2021 11:303.7 °C91 %2.4 °C14 km/hO24 km/h0.31008 hPa0.0 mm
05/12/2021 11:103.8 °C92 %2.7 °C14 km/hO26 km/h0.31008 hPa0.0 mm
05/12/2021 11:003.6 °C92 %2.4 °C14 km/hO18 km/h0.41008 hPa0.0 mm
05/12/2021 10:403.3 °C92 %2.1 °C14 km/hO29 km/h-0.61008 hPa0.0 mm
05/12/2021 10:303.3 °C92 %2.1 °C13 km/hO27 km/h-0.31008 hPa0.0 mm
05/12/2021 10:103.4 °C92 %2.2 °C12 km/hO24 km/h0.01008 hPa0.0 mm
05/12/2021 10:003.3 °C92 %2.2 °C12 km/hONO19 km/h0.01008 hPa0.0 mm
05/12/2021 09:403.3 °C92 %2.2 °C11 km/hONO21 km/h0.21008 hPa0.0 mm
05/12/2021 09:303.4 °C92 %2.2 °C11 km/hONO24 km/h0.31007 hPa0.0 mm
05/12/2021 09:103.4 °C92 %2.2 °C10 km/hONO23 km/h0.51007 hPa0.0 mm
05/12/2021 09:003.4 °C92 %2.2 °C9 km/hO19 km/h0.51007 hPa0.0 mm
05/12/2021 08:403.4 °C92 %2.2 °C8 km/hONO18 km/h0.91007 hPa0.0 mm
05/12/2021 08:303.4 °C93 %2.4 °C9 km/hONO15 km/h1.11007 hPa0.0 mm
05/12/2021 08:103.4 °C93 %2.4 °C9 km/hONO16 km/h1.01007 hPa0.0 mm
05/12/2021 08:003.4 °C93 %2.4 °C10 km/hONO19 km/h0.81007 hPa0.0 mm
05/12/2021 07:403.4 °C93 %2.4 °C10 km/hO21 km/h0.31007 hPa0.0 mm
05/12/2021 07:303.3 °C93 %2.3 °C10 km/hONO19 km/h1.11007 hPa0.0 mm
05/12/2021 07:103.4 °C93 %2.4 °C11 km/hO16 km/h0.81006 hPa0.0 mm
05/12/2021 07:003.7 °C93 %2.6 °C12 km/hO19 km/h0.61006 hPa0.0 mm
05/12/2021 06:403.7 °C93 %2.7 °C13 km/hO21 km/h0.71006 hPa0.0 mm
05/12/2021 06:303.7 °C94 %2.8 °C13 km/hO23 km/h0.51006 hPa0.0 mm
05/12/2021 06:103.7 °C94 %2.8 °C13 km/hO26 km/h0.51006 hPa0.0 mm
05/12/2021 06:003.7 °C94 %2.8 °C14 km/hOSO23 km/h0.41006 hPa0.0 mm
05/12/2021 05:403.7 °C94 %2.8 °C14 km/hOSO19 km/h0.51006 hPa0.0 mm
05/12/2021 05:303.7 °C94 %2.8 °C14 km/hOSO26 km/h-0.11006 hPa0.0 mm
05/12/2021 05:103.6 °C94 %2.7 °C13 km/hOSO24 km/h0.01006 hPa0.0 mm
05/12/2021 05:003.6 °C94 %2.7 °C12 km/hOSO21 km/h0.21006 hPa0.0 mm
05/12/2021 04:403.7 °C93 %2.7 °C12 km/hOSO23 km/h0.41006 hPa0.0 mm
05/12/2021 04:303.7 °C93 %2.7 °C12 km/hOSO23 km/h0.51006 hPa0.0 mm
05/12/2021 04:103.5 °C94 %2.6 °C11 km/hOSO21 km/h0.71006 hPa0.0 mm
05/12/2021 04:003.4 °C93 %2.4 °C12 km/hSO24 km/h0.01006 hPa0.0 mm
05/12/2021 03:403.2 °C93 %2.1 °C12 km/hSO23 km/h0.11006 hPa0.0 mm
05/12/2021 03:303.3 °C93 %2.3 °C12 km/hSO23 km/h0.21006 hPa0.0 mm
05/12/2021 03:103.2 °C93 %2.2 °C13 km/hSO21 km/h0.21007 hPa0.0 mm
05/12/2021 03:003.3 °C93 %2.3 °C13 km/hSO21 km/h-0.11007 hPa0.0 mm
05/12/2021 02:403.4 °C93 %2.4 °C13 km/hSO24 km/h0.21007 hPa0.0 mm
05/12/2021 02:303.5 °C93 %2.5 °C13 km/hSO26 km/h0.11007 hPa0.0 mm
05/12/2021 02:103.6 °C92 %2.4 °C13 km/hSO26 km/h0.31007 hPa0.0 mm
05/12/2021 02:003.7 °C92 %2.5 °C13 km/hOSO19 km/h0.51008 hPa0.0 mm
05/12/2021 01:403.6 °C92 %2.4 °C13 km/hSO23 km/h0.31008 hPa0.0 mm
05/12/2021 01:303.8 °C90 %2.3 °C13 km/hSO27 km/h0.31008 hPa0.0 mm
05/12/2021 01:104.1 °C89 %2.4 °C13 km/hOSO26 km/h0.91008 hPa0.0 mm
05/12/2021 01:00-------0 hPa-
05/12/2021 00:303.9 °C92 %2.8 °C11 km/hSO23 km/h0.91009 hPa13.4 mm
05/12/2021 00:103.8 °C92 %2.7 °C11 km/hSO21 km/h1.01009 hPa13.4 mm
05/12/2021 00:00---11 km/h---0 hPa13.4 mm


Minima :

Température : 3.2 °C
Humidité : 89 %
Point de rosée : 2.1 °C
Vent moyen : 8 km/h
Windchill : -0.6
Pression atm. : 0 hPa
Maxima :

Température : 4.3 °C
Humidité : 94 %
Point de rosée : 2.9 °C
Vent moyen : 15 km/h
Windchill : 1.1
Pression atm. : 1009 hPa
Rafales max : 29 km/h
Cumul de pluie sur 24H : 13.4 mm

LYs SAINT GEORGES est une commune du département Indre (36).
La station météorologique du réseau de l'association la plus proche de Lys-Saint-Georges est celle de Etrechet



Icône Facebook Association Météo Centre Icône Twitter Association Météo Centre Icône Chaîne Youtube Association Météo Centre Icône contact Association Météo Centre Icône Insta Association Météo Centre